sensor_id;sensor_type;location;lat;lon;timestamp;temperature;humidity
22177;DHT22;11254;50.098;8.726;2022-07-25T00:00:30;21.20;97.80
22177;DHT22;11254;50.098;8.726;2022-07-25T00:02:58;21.20;98.20
22177;DHT22;11254;50.098;8.726;2022-07-25T00:05:28;21.20;98.80
22177;DHT22;11254;50.098;8.726;2022-07-25T00:08:04;21.20;98.90
22177;DHT22;11254;50.098;8.726;2022-07-25T00:10:33;21.10;99.10
22177;DHT22;11254;50.098;8.726;2022-07-25T00:13:01;21.10;99.40
22177;DHT22;11254;50.098;8.726;2022-07-25T00:15:30;21.10;99.90
22177;DHT22;11254;50.098;8.726;2022-07-25T00:17:58;21.10;99.90
22177;DHT22;11254;50.098;8.726;2022-07-25T00:20:26;21.00;99.90
22177;DHT22;11254;50.098;8.726;2022-07-25T00:22:54;21.00;99.90
22177;DHT22;11254;50.098;8.726;2022-07-25T00:25:22;21.00;99.90
22177;DHT22;11254;50.098;8.726;2022-07-25T00:27:51;21.00;99.90
22177;DHT22;11254;50.098;8.726;2022-07-25T00:30:19;21.00;99.90
22177;DHT22;11254;50.098;8.726;2022-07-25T00:32:47;21.00;99.90
22177;DHT22;11254;50.098;8.726;2022-07-25T00:35:16;21.00;99.90
22177;DHT22;11254;50.098;8.726;2022-07-25T00:37:44;21.00;99.90
22177;DHT22;11254;50.098;8.726;2022-07-25T00:40:12;21.00;99.90
22177;DHT22;11254;50.098;8.726;2022-07-25T00:42:40;20.90;99.90
22177;DHT22;11254;50.098;8.726;2022-07-25T00:45:10;20.90;99.90
22177;DHT22;11254;50.098;8.726;2022-07-25T00:47:38;20.90;99.90
22177;DHT22;11254;50.098;8.726;2022-07-25T00:50:07;20.80;99.90
22177;DHT22;11254;50.098;8.726;2022-07-25T00:52:35;20.70;99.90
22177;DHT22;11254;50.098;8.726;2022-07-25T00:55:04;20.70;99.90
22177;DHT22;11254;50.098;8.726;2022-07-25T00:57:33;20.70;99.90
22177;DHT22;11254;50.098;8.726;2022-07-25T01:00:03;20.60;99.90
22177;DHT22;11254;50.098;8.726;2022-07-25T01:02:32;20.70;99.90
22177;DHT22;11254;50.098;8.726;2022-07-25T01:05:01;20.70;99.90
22177;DHT22;11254;50.098;8.726;2022-07-25T01:07:30;20.70;99.90
22177;DHT22;11254;50.098;8.726;2022-07-25T01:09:59;20.70;99.90
22177;DHT22;11254;50.098;8.726;2022-07-25T01:12:27;20.70;99.90
22177;DHT22;11254;50.098;8.726;2022-07-25T01:14:55;20.70;99.90
22177;DHT22;11254;50.098;8.726;2022-07-25T01:17:23;20.70;99.90
22177;DHT22;11254;50.098;8.726;2022-07-25T01:19:53;20.70;99.90
22177;DHT22;11254;50.098;8.726;2022-07-25T01:22:22;20.60;99.90
22177;DHT22;11254;50.098;8.726;2022-07-25T01:24:50;20.60;99.90
22177;DHT22;11254;50.098;8.726;2022-07-25T01:27:18;20.60;99.90
22177;DHT22;11254;50.098;8.726;2022-07-25T01:29:46;20.60;99.90
22177;DHT22;11254;50.098;8.726;2022-07-25T01:32:14;20.60;99.90
22177;DHT22;11254;50.098;8.726;2022-07-25T01:34:42;20.50;99.90
22177;DHT22;11254;50.098;8.726;2022-07-25T01:37:10;20.50;99.90
22177;DHT22;11254;50.098;8.726;2022-07-25T01:39:40;20.50;99.90
22177;DHT22;11254;50.098;8.726;2022-07-25T01:42:08;20.40;99.90
22177;DHT22;11254;50.098;8.726;2022-07-25T01:44:36;20.40;99.90
22177;DHT22;11254;50.098;8.726;2022-07-25T01:47:04;20.30;99.90
22177;DHT22;11254;50.098;8.726;2022-07-25T01:49:32;20.30;99.90
22177;DHT22;11254;50.098;8.726;2022-07-25T01:52:00;20.20;99.90
22177;DHT22;11254;50.098;8.726;2022-07-25T01:54:28;20.20;99.90
22177;DHT22;11254;50.098;8.726;2022-07-25T01:56:59;20.20;99.90
22177;DHT22;11254;50.098;8.726;2022-07-25T01:59:27;20.20;99.90
22177;DHT22;11254;50.098;8.726;2022-07-25T02:01:55;20.20;99.90
22177;DHT22;11254;50.098;8.726;2022-07-25T02:04:23;20.20;99.90
22177;DHT22;11254;50.098;8.726;2022-07-25T02:06:51;20.20;99.90
22177;DHT22;11254;50.098;8.726;2022-07-25T02:09:19;20.20;99.90
22177;DHT22;11254;50.098;8.726;2022-07-25T02:11:48;20.20;99.90
22177;DHT22;11254;50.098;8.726;2022-07-25T02:14:17;20.10;99.90
22177;DHT22;11254;50.098;8.726;2022-07-25T02:16:45;20.10;99.90
22177;DHT22;11254;50.098;8.726;2022-07-25T02:19:13;20.10;99.90
22177;DHT22;11254;50.098;8.726;2022-07-25T02:21:41;20.10;99.90
22177;DHT22;11254;50.098;8.726;2022-07-25T02:24:09;20.00;99.90
22177;DHT22;11254;50.098;8.726;2022-07-25T02:26:37;20.00;99.90
22177;DHT22;11254;50.098;8.726;2022-07-25T02:29:05;20.00;99.90
22177;DHT22;11254;50.098;8.726;2022-07-25T02:31:35;20.00;99.90
22177;DHT22;11254;50.098;8.726;2022-07-25T02:34:03;19.90;99.90
22177;DHT22;11254;50.098;8.726;2022-07-25T02:36:32;19.90;99.90
22177;DHT22;11254;50.098;8.726;2022-07-25T02:39:00;19.90;99.90
22177;DHT22;11254;50.098;8.726;2022-07-25T02:41:28;19.90;99.90
22177;DHT22;11254;50.098;8.726;2022-07-25T02:43:55;19.90;99.90
22177;DHT22;11254;50.098;8.726;2022-07-25T02:46:24;19.80;99.90
22177;DHT22;11254;50.098;8.726;2022-07-25T02:48:54;19.90;99.90
22177;DHT22;11254;50.098;8.726;2022-07-25T02:51:22;19.90;99.90
22177;DHT22;11254;50.098;8.726;2022-07-25T02:53:51;19.90;99.90
22177;DHT22;11254;50.098;8.726;2022-07-25T02:56:24;19.80;99.90
22177;DHT22;11254;50.098;8.726;2022-07-25T02:58:55;19.80;99.90
22177;DHT22;11254;50.098;8.726;2022-07-25T03:01:23;19.80;99.90
22177;DHT22;11254;50.098;8.726;2022-07-25T03:03:53;19.80;99.90
22177;DHT22;11254;50.098;8.726;2022-07-25T03:06:21;19.80;99.90
22177;DHT22;11254;50.098;8.726;2022-07-25T03:08:49;19.80;99.90
22177;DHT22;11254;50.098;8.726;2022-07-25T03:11:18;19.80;99.90
22177;DHT22;11254;50.098;8.726;2022-07-25T03:13:46;19.80;99.90
22177;DHT22;11254;50.098;8.726;2022-07-25T03:16:14;19.80;99.90
22177;DHT22;11254;50.098;8.726;2022-07-25T03:18:42;19.70;99.90
22177;DHT22;11254;50.098;8.726;2022-07-25T03:21:12;19.70;99.90
22177;DHT22;11254;50.098;8.726;2022-07-25T03:23:40;19.60;99.90
22177;DHT22;11254;50.098;8.726;2022-07-25T03:26:08;19.60;99.90
22177;DHT22;11254;50.098;8.726;2022-07-25T03:28:36;19.60;99.90
22177;DHT22;11254;50.098;8.726;2022-07-25T03:31:04;19.60;99.90
22177;DHT22;11254;50.098;8.726;2022-07-25T03:33:32;19.70;99.90
22177;DHT22;11254;50.098;8.726;2022-07-25T03:36:01;19.70;99.90
22177;DHT22;11254;50.098;8.726;2022-07-25T03:38:31;19.60;99.90
22177;DHT22;11254;50.098;8.726;2022-07-25T03:40:59;19.50;99.90
22177;DHT22;11254;50.098;8.726;2022-07-25T03:43:27;19.50;99.90
22177;DHT22;11254;50.098;8.726;2022-07-25T03:45:57;19.50;99.90
22177;DHT22;11254;50.098;8.726;2022-07-25T03:48:25;19.60;99.90
22177;DHT22;11254;50.098;8.726;2022-07-25T03:50:54;19.60;99.90
22177;DHT22;11254;50.098;8.726;2022-07-25T03:53:22;19.60;99.90
22177;DHT22;11254;50.098;8.726;2022-07-25T03:55:52;19.60;99.90
22177;DHT22;11254;50.098;8.726;2022-07-25T03:58:20;19.70;99.90
22177;DHT22;11254;50.098;8.726;2022-07-25T04:00:48;19.70;99.90
22177;DHT22;11254;50.098;8.726;2022-07-25T04:03:16;19.60;99.90
22177;DHT22;11254;50.098;8.726;2022-07-25T04:05:44;19.70;99.90
22177;DHT22;11254;50.098;8.726;2022-07-25T04:08:13;19.60;99.90
22177;DHT22;11254;50.098;8.726;2022-07-25T04:10:41;19.70;99.90
22177;DHT22;11254;50.098;8.726;2022-07-25T04:13:10;19.70;99.90
22177;DHT22;11254;50.098;8.726;2022-07-25T04:15:38;19.80;99.90
22177;DHT22;11254;50.098;8.726;2022-07-25T04:18:07;19.80;99.90
22177;DHT22;11254;50.098;8.726;2022-07-25T04:20:39;19.80;99.90
22177;DHT22;11254;50.098;8.726;2022-07-25T04:23:07;19.80;99.90
22177;DHT22;11254;50.098;8.726;2022-07-25T04:25:36;19.90;99.90
22177;DHT22;11254;50.098;8.726;2022-07-25T04:28:04;19.90;99.90
22177;DHT22;11254;50.098;8.726;2022-07-25T04:30:33;19.90;99.90
22177;DHT22;11254;50.098;8.726;2022-07-25T04:33:01;19.90;99.90
22177;DHT22;11254;50.098;8.726;2022-07-25T04:35:29;19.80;99.90
22177;DHT22;11254;50.098;8.726;2022-07-25T04:37:57;19.90;99.90
22177;DHT22;11254;50.098;8.726;2022-07-25T04:40:25;19.90;99.90
22177;DHT22;11254;50.098;8.726;2022-07-25T04:42:53;20.00;99.90
22177;DHT22;11254;50.098;8.726;2022-07-25T04:45:21;20.00;99.90
22177;DHT22;11254;50.098;8.726;2022-07-25T04:47:51;20.10;99.90
22177;DHT22;11254;50.098;8.726;2022-07-25T04:50:19;20.10;99.90
22177;DHT22;11254;50.098;8.726;2022-07-25T04:52:51;20.20;99.90
22177;DHT22;11254;50.098;8.726;2022-07-25T04:55:19;20.20;99.90
22177;DHT22;11254;50.098;8.726;2022-07-25T04:57:47;20.20;99.90
22177;DHT22;11254;50.098;8.726;2022-07-25T05:00:16;20.20;99.90
22177;DHT22;11254;50.098;8.726;2022-07-25T05:02:44;20.30;99.90
22177;DHT22;11254;50.098;8.726;2022-07-25T05:05:13;20.30;99.90
22177;DHT22;11254;50.098;8.726;2022-07-25T05:07:48;20.30;99.90
22177;DHT22;11254;50.098;8.726;2022-07-25T05:10:16;20.30;99.90
22177;DHT22;11254;50.098;8.726;2022-07-25T05:12:44;20.40;99.90
22177;DHT22;11254;50.098;8.726;2022-07-25T05:15:12;20.50;99.90
22177;DHT22;11254;50.098;8.726;2022-07-25T05:17:40;20.50;99.90
22177;DHT22;11254;50.098;8.726;2022-07-25T05:20:10;20.50;99.90
22177;DHT22;11254;50.098;8.726;2022-07-25T05:22:39;20.60;99.90
22177;DHT22;11254;50.098;8.726;2022-07-25T05:25:09;20.60;99.90
22177;DHT22;11254;50.098;8.726;2022-07-25T05:27:38;20.70;99.90
22177;DHT22;11254;50.098;8.726;2022-07-25T05:30:08;20.70;99.90
22177;DHT22;11254;50.098;8.726;2022-07-25T05:32:37;20.70;99.90
22177;DHT22;11254;50.098;8.726;2022-07-25T05:35:06;20.80;99.90
22177;DHT22;11254;50.098;8.726;2022-07-25T05:37:35;20.90;99.90
22177;DHT22;11254;50.098;8.726;2022-07-25T05:40:07;21.00;99.90
22177;DHT22;11254;50.098;8.726;2022-07-25T05:42:35;21.00;99.90
22177;DHT22;11254;50.098;8.726;2022-07-25T05:45:04;21.10;99.90
22177;DHT22;11254;50.098;8.726;2022-07-25T05:47:32;21.10;99.90
22177;DHT22;11254;50.098;8.726;2022-07-25T05:50:01;21.10;99.90
22177;DHT22;11254;50.098;8.726;2022-07-25T05:52:29;21.20;99.90
22177;DHT22;11254;50.098;8.726;2022-07-25T05:54:57;21.30;99.90
22177;DHT22;11254;50.098;8.726;2022-07-25T05:57:27;21.40;99.90
22177;DHT22;11254;50.098;8.726;2022-07-25T05:59:55;21.50;99.90
22177;DHT22;11254;50.098;8.726;2022-07-25T06:02:23;21.60;99.90
22177;DHT22;11254;50.098;8.726;2022-07-25T06:04:52;21.70;99.90
22177;DHT22;11254;50.098;8.726;2022-07-25T06:07:20;21.80;99.90
22177;DHT22;11254;50.098;8.726;2022-07-25T06:09:48;21.90;99.90
22177;DHT22;11254;50.098;8.726;2022-07-25T06:12:16;22.10;99.90
22177;DHT22;11254;50.098;8.726;2022-07-25T06:14:45;22.80;99.90
22177;DHT22;11254;50.098;8.726;2022-07-25T06:19:42;24.70;94.60
22177;DHT22;11254;50.098;8.726;2022-07-25T06:22:10;29.90;72.40
22177;DHT22;11254;50.098;8.726;2022-07-25T06:24:40;32.00;59.20
22177;DHT22;11254;50.098;8.726;2022-07-25T06:27:08;32.90;55.10
22177;DHT22;11254;50.098;8.726;2022-07-25T06:29:37;32.90;53.60
22177;DHT22;11254;50.098;8.726;2022-07-25T06:32:06;31.80;54.70
22177;DHT22;11254;50.098;8.726;2022-07-25T06:34:34;30.70;56.50
22177;DHT22;11254;50.098;8.726;2022-07-25T06:37:02;29.60;59.40
22177;DHT22;11254;50.098;8.726;2022-07-25T06:39:30;28.70;63.40
22177;DHT22;11254;50.098;8.726;2022-07-25T06:41:59;27.90;65.40
22177;DHT22;11254;50.098;8.726;2022-07-25T06:44:33;27.10;68.50
22177;DHT22;11254;50.098;8.726;2022-07-25T06:47:02;26.50;71.60
22177;DHT22;11254;50.098;8.726;2022-07-25T06:49:32;26.20;73.70
22177;DHT22;11254;50.098;8.726;2022-07-25T06:52:00;25.80;76.50
22177;DHT22;11254;50.098;8.726;2022-07-25T06:54:29;25.80;77.40
22177;DHT22;11254;50.098;8.726;2022-07-25T06:56:57;26.60;76.20
22177;DHT22;11254;50.098;8.726;2022-07-25T06:59:25;28.80;70.00
22177;DHT22;11254;50.098;8.726;2022-07-25T07:01:53;31.70;58.50
22177;DHT22;11254;50.098;8.726;2022-07-25T07:04:21;34.10;52.20
22177;DHT22;11254;50.098;8.726;2022-07-25T07:06:50;36.10;46.20
22177;DHT22;11254;50.098;8.726;2022-07-25T07:09:18;37.20;42.80
22177;DHT22;11254;50.098;8.726;2022-07-25T13:26:35;36.20;38.20
22177;DHT22;11254;50.098;8.726;2022-07-25T13:36:37;35.40;38.50
22177;DHT22;11254;50.098;8.726;2022-07-25T13:39:05;35.20;38.10
22177;DHT22;11254;50.098;8.726;2022-07-25T13:41:34;34.80;39.10
22177;DHT22;11254;50.098;8.726;2022-07-25T13:44:02;34.50;39.50
22177;DHT22;11254;50.098;8.726;2022-07-25T13:46:30;34.30;40.30
22177;DHT22;11254;50.098;8.726;2022-07-25T13:48:59;34.20;41.30
22177;DHT22;11254;50.098;8.726;2022-07-25T13:51:27;34.40;41.50
22177;DHT22;11254;50.098;8.726;2022-07-25T13:53:56;34.60;40.90
22177;DHT22;11254;50.098;8.726;2022-07-25T13:56:24;34.90;40.50
22177;DHT22;11254;50.098;8.726;2022-07-25T13:58:52;35.00;40.10
22177;DHT22;11254;50.098;8.726;2022-07-25T14:01:20;34.70;39.80
22177;DHT22;11254;50.098;8.726;2022-07-25T14:03:49;34.50;40.00
22177;DHT22;11254;50.098;8.726;2022-07-25T14:06:17;34.40;40.10
22177;DHT22;11254;50.098;8.726;2022-07-25T14:08:45;34.30;40.70
22177;DHT22;11254;50.098;8.726;2022-07-25T14:11:15;34.10;40.90
22177;DHT22;11254;50.098;8.726;2022-07-25T14:13:43;33.90;41.00
22177;DHT22;11254;50.098;8.726;2022-07-25T14:16:12;33.70;41.20
22177;DHT22;11254;50.098;8.726;2022-07-25T14:18:42;33.60;41.10
22177;DHT22;11254;50.098;8.726;2022-07-25T14:21:10;33.70;41.20
22177;DHT22;11254;50.098;8.726;2022-07-25T14:23:38;33.70;41.00
22177;DHT22;11254;50.098;8.726;2022-07-25T14:26:06;33.70;40.80
22177;DHT22;11254;50.098;8.726;2022-07-25T14:28:35;33.80;40.70
22177;DHT22;11254;50.098;8.726;2022-07-25T14:31:03;33.80;41.00
22177;DHT22;11254;50.098;8.726;2022-07-25T14:33:32;33.90;41.00
22177;DHT22;11254;50.098;8.726;2022-07-25T14:36:04;34.20;41.10
22177;DHT22;11254;50.098;8.726;2022-07-25T14:38:32;34.60;40.90
22177;DHT22;11254;50.098;8.726;2022-07-25T14:41:00;34.70;40.50
22177;DHT22;11254;50.098;8.726;2022-07-25T14:43:28;35.00;40.10
22177;DHT22;11254;50.098;8.726;2022-07-25T14:45:57;35.10;39.60
22177;DHT22;11254;50.098;8.726;2022-07-25T14:48:26;35.10;40.10
22177;DHT22;11254;50.098;8.726;2022-07-25T14:50:54;34.70;40.60
22177;DHT22;11254;50.098;8.726;2022-07-25T14:53:22;34.40;41.30
22177;DHT22;11254;50.098;8.726;2022-07-25T14:55:49;34.20;41.70
22177;DHT22;11254;50.098;8.726;2022-07-25T14:58:19;34.10;42.60
22177;DHT22;11254;50.098;8.726;2022-07-25T15:00:47;34.00;43.30
22177;DHT22;11254;50.098;8.726;2022-07-25T15:03:16;33.80;44.50
22177;DHT22;11254;50.098;8.726;2022-07-25T15:05:44;33.60;44.40
22177;DHT22;11254;50.098;8.726;2022-07-25T15:08:12;33.80;44.10
22177;DHT22;11254;50.098;8.726;2022-07-25T15:10:40;34.10;43.90
22177;DHT22;11254;50.098;8.726;2022-07-25T15:13:10;34.30;43.80
22177;DHT22;11254;50.098;8.726;2022-07-25T15:15:58;34.50;43.30
22177;DHT22;11254;50.098;8.726;2022-07-25T15:18:28;34.20;43.70
22177;DHT22;11254;50.098;8.726;2022-07-25T15:20:56;34.20;44.30
22177;DHT22;11254;50.098;8.726;2022-07-25T15:23:24;33.90;44.50
22177;DHT22;11254;50.098;8.726;2022-07-25T15:25:57;34.00;44.30
22177;DHT22;11254;50.098;8.726;2022-07-25T15:28:28;34.20;44.50
22177;DHT22;11254;50.098;8.726;2022-07-25T15:30:56;34.20;44.40
22177;DHT22;11254;50.098;8.726;2022-07-25T15:33:24;34.20;44.60
22177;DHT22;11254;50.098;8.726;2022-07-25T15:35:54;34.00;45.00
22177;DHT22;11254;50.098;8.726;2022-07-25T15:38:22;33.80;45.20
22177;DHT22;11254;50.098;8.726;2022-07-25T15:40:50;33.50;45.80
22177;DHT22;11254;50.098;8.726;2022-07-25T15:43:18;33.40;46.20
22177;DHT22;11254;50.098;8.726;2022-07-25T15:45:46;33.30;46.10
22177;DHT22;11254;50.098;8.726;2022-07-25T15:48:15;33.30;46.10
22177;DHT22;11254;50.098;8.726;2022-07-25T15:50:45;33.30;46.40
22177;DHT22;11254;50.098;8.726;2022-07-25T15:53:15;33.40;45.90
22177;DHT22;11254;50.098;8.726;2022-07-25T15:55:43;33.40;45.50
22177;DHT22;11254;50.098;8.726;2022-07-25T15:58:12;33.60;45.20
22177;DHT22;11254;50.098;8.726;2022-07-25T16:00:40;33.70;45.10
22177;DHT22;11254;50.098;8.726;2022-07-25T16:03:09;33.70;45.00
22177;DHT22;11254;50.098;8.726;2022-07-25T16:05:38;33.60;45.10
22177;DHT22;11254;50.098;8.726;2022-07-25T16:08:06;33.60;45.20
22177;DHT22;11254;50.098;8.726;2022-07-25T16:10:37;33.70;44.70
22177;DHT22;11254;50.098;8.726;2022-07-25T16:13:05;33.80;44.50
22177;DHT22;11254;50.098;8.726;2022-07-25T16:15:33;33.80;42.00
22177;DHT22;11254;50.098;8.726;2022-07-25T16:18:01;33.80;41.30
22177;DHT22;11254;50.098;8.726;2022-07-25T16:20:29;33.60;41.30
22177;DHT22;11254;50.098;8.726;2022-07-25T16:22:58;33.40;41.70
22177;DHT22;11254;50.098;8.726;2022-07-25T16:25:27;33.20;41.90
22177;DHT22;11254;50.098;8.726;2022-07-25T16:27:57;33.00;41.70
22177;DHT22;11254;50.098;8.726;2022-07-25T16:30:26;32.90;41.40
22177;DHT22;11254;50.098;8.726;2022-07-25T16:32:54;32.70;41.60
22177;DHT22;11254;50.098;8.726;2022-07-25T16:35:22;32.80;41.70
22177;DHT22;11254;50.098;8.726;2022-07-25T16:37:51;32.70;41.40
22177;DHT22;11254;50.098;8.726;2022-07-25T16:40:19;32.70;41.70
22177;DHT22;11254;50.098;8.726;2022-07-25T16:42:50;32.70;41.60
22177;DHT22;11254;50.098;8.726;2022-07-25T16:45:23;32.70;41.60
22177;DHT22;11254;50.098;8.726;2022-07-25T16:47:51;32.60;41.70
22177;DHT22;11254;50.098;8.726;2022-07-25T16:50:19;32.50;41.70
22177;DHT22;11254;50.098;8.726;2022-07-25T16:52:47;32.50;41.10
22177;DHT22;11254;50.098;8.726;2022-07-25T16:55:15;32.40;40.90
22177;DHT22;11254;50.098;8.726;2022-07-25T16:57:43;32.30;41.50
22177;DHT22;11254;50.098;8.726;2022-07-25T17:00:12;32.30;41.90
22177;DHT22;11254;50.098;8.726;2022-07-25T17:02:41;32.20;42.30
22177;DHT22;11254;50.098;8.726;2022-07-25T17:05:11;32.10;42.70
22177;DHT22;11254;50.098;8.726;2022-07-25T17:07:39;32.00;43.10
22177;DHT22;11254;50.098;8.726;2022-07-25T17:10:07;31.90;43.40
22177;DHT22;11254;50.098;8.726;2022-07-25T17:12:36;31.90;45.80
22177;DHT22;11254;50.098;8.726;2022-07-25T17:15:05;31.70;47.50
22177;DHT22;11254;50.098;8.726;2022-07-25T17:17:33;31.70;48.20
22177;DHT22;11254;50.098;8.726;2022-07-25T17:20:03;31.50;48.80
22177;DHT22;11254;50.098;8.726;2022-07-25T17:22:32;31.40;49.30
22177;DHT22;11254;50.098;8.726;2022-07-25T17:25:00;31.30;49.80
22177;DHT22;11254;50.098;8.726;2022-07-25T17:27:29;31.10;49.90
22177;DHT22;11254;50.098;8.726;2022-07-25T17:29:57;31.00;49.80
22177;DHT22;11254;50.098;8.726;2022-07-25T17:47:21;31.00;50.30
22177;DHT22;11254;50.098;8.726;2022-07-25T17:49:49;29.90;53.40
22177;DHT22;11254;50.098;8.726;2022-07-25T17:52:17;29.70;53.70
22177;DHT22;11254;50.098;8.726;2022-07-25T17:54:46;29.50;53.80
22177;DHT22;11254;50.098;8.726;2022-07-25T17:57:14;29.40;54.00
22177;DHT22;11254;50.098;8.726;2022-07-25T17:59:42;29.40;54.10
22177;DHT22;11254;50.098;8.726;2022-07-25T18:05:59;29.10;54.70
22177;DHT22;11254;50.098;8.726;2022-07-25T18:08:27;29.10;55.10
22177;DHT22;11254;50.098;8.726;2022-07-25T18:11:00;29.00;55.10
22177;DHT22;11254;50.098;8.726;2022-07-25T18:13:29;28.90;55.50
22177;DHT22;11254;50.098;8.726;2022-07-25T18:15:57;28.80;55.70
22177;DHT22;11254;50.098;8.726;2022-07-25T18:18:25;28.60;56.00
22177;DHT22;11254;50.098;8.726;2022-07-25T18:20:53;28.60;56.20
22177;DHT22;11254;50.098;8.726;2022-07-25T18:23:21;28.40;56.50
22177;DHT22;11254;50.098;8.726;2022-07-25T18:25:50;28.40;56.90
22177;DHT22;11254;50.098;8.726;2022-07-25T18:28:21;28.30;57.10
22177;DHT22;11254;50.098;8.726;2022-07-25T18:30:50;28.20;57.20
22177;DHT22;11254;50.098;8.726;2022-07-25T18:33:19;28.10;57.20
22177;DHT22;11254;50.098;8.726;2022-07-25T18:35:48;28.00;57.40
22177;DHT22;11254;50.098;8.726;2022-07-25T18:38:17;27.90;57.70
22177;DHT22;11254;50.098;8.726;2022-07-25T18:40:45;27.80;57.90
22177;DHT22;11254;50.098;8.726;2022-07-25T18:43:13;27.70;58.00
22177;DHT22;11254;50.098;8.726;2022-07-25T18:45:43;27.60;58.30
22177;DHT22;11254;50.098;8.726;2022-07-25T18:48:12;27.50;58.50
22177;DHT22;11254;50.098;8.726;2022-07-25T18:50:41;27.30;58.90
22177;DHT22;11254;50.098;8.726;2022-07-25T18:53:09;27.30;58.70
22177;DHT22;11254;50.098;8.726;2022-07-25T18:55:37;27.10;58.90
22177;DHT22;11254;50.098;8.726;2022-07-25T18:58:05;27.00;59.30
22177;DHT22;11254;50.098;8.726;2022-07-25T19:00:34;26.90;59.30
22177;DHT22;11254;50.098;8.726;2022-07-25T19:03:04;26.80;59.70
22177;DHT22;11254;50.098;8.726;2022-07-25T19:05:31;26.70;60.10
22177;DHT22;11254;50.098;8.726;2022-07-25T19:08:00;26.60;60.60
22177;DHT22;11254;50.098;8.726;2022-07-25T19:10:29;26.50;60.90
22177;DHT22;11254;50.098;8.726;2022-07-25T19:12:57;26.50;61.30
22177;DHT22;11254;50.098;8.726;2022-07-25T19:15:25;26.40;61.70
22177;DHT22;11254;50.098;8.726;2022-07-25T19:17:54;26.30;62.00
22177;DHT22;11254;50.098;8.726;2022-07-25T19:20:24;26.30;62.10
22177;DHT22;11254;50.098;8.726;2022-07-25T19:22:52;26.20;62.20
22177;DHT22;11254;50.098;8.726;2022-07-25T19:25:21;26.10;62.50
22177;DHT22;11254;50.098;8.726;2022-07-25T19:27:49;26.10;62.60
22177;DHT22;11254;50.098;8.726;2022-07-25T19:30:17;26.00;63.00
22177;DHT22;11254;50.098;8.726;2022-07-25T19:32:46;25.80;63.50
22177;DHT22;11254;50.098;8.726;2022-07-25T19:35:14;25.70;64.00
22177;DHT22;11254;50.098;8.726;2022-07-25T19:37:53;25.60;64.60
22177;DHT22;11254;50.098;8.726;2022-07-25T19:40:21;25.50;65.50
22177;DHT22;11254;50.098;8.726;2022-07-25T19:42:49;25.50;65.80
22177;DHT22;11254;50.098;8.726;2022-07-25T19:45:17;25.50;66.10
22177;DHT22;11254;50.098;8.726;2022-07-25T19:47:45;25.50;66.50
22177;DHT22;11254;50.098;8.726;2022-07-25T19:50:13;25.40;67.10
22177;DHT22;11254;50.098;8.726;2022-07-25T19:52:41;25.20;67.80
22177;DHT22;11254;50.098;8.726;2022-07-25T19:55:11;25.20;68.60
22177;DHT22;11254;50.098;8.726;2022-07-25T19:57:39;25.10;69.10
22177;DHT22;11254;50.098;8.726;2022-07-25T20:00:07;25.10;69.50
22177;DHT22;11254;50.098;8.726;2022-07-25T20:02:39;25.10;70.00
22177;DHT22;11254;50.098;8.726;2022-07-25T20:05:09;25.10;70.20
22177;DHT22;11254;50.098;8.726;2022-07-25T20:07:37;25.00;70.50
22177;DHT22;11254;50.098;8.726;2022-07-25T20:10:06;24.90;71.20
22177;DHT22;11254;50.098;8.726;2022-07-25T20:12:35;24.90;72.00
22177;DHT22;11254;50.098;8.726;2022-07-25T20:15:04;24.80;72.70
22177;DHT22;11254;50.098;8.726;2022-07-25T20:17:33;24.80;73.50
22177;DHT22;11254;50.098;8.726;2022-07-25T20:20:01;24.70;74.00
22177;DHT22;11254;50.098;8.726;2022-07-25T20:22:31;24.70;74.70
22177;DHT22;11254;50.098;8.726;2022-07-25T20:25:03;24.60;75.20
22177;DHT22;11254;50.098;8.726;2022-07-25T20:27:32;24.60;75.60
22177;DHT22;11254;50.098;8.726;2022-07-25T20:30:02;24.60;76.60
22177;DHT22;11254;50.098;8.726;2022-07-25T20:32:30;24.60;77.00
22177;DHT22;11254;50.098;8.726;2022-07-25T20:34:58;24.60;77.80
22177;DHT22;11254;50.098;8.726;2022-07-25T20:37:26;24.70;78.10
22177;DHT22;11254;50.098;8.726;2022-07-25T20:39:54;24.60;78.70
22177;DHT22;11254;50.098;8.726;2022-07-25T20:42:22;24.70;79.50
22177;DHT22;11254;50.098;8.726;2022-07-25T20:44:50;24.60;79.90
22177;DHT22;11254;50.098;8.726;2022-07-25T20:47:19;24.60;80.40
22177;DHT22;11254;50.098;8.726;2022-07-25T20:49:47;24.60;80.70
22177;DHT22;11254;50.098;8.726;2022-07-25T20:52:15;24.60;80.90
22177;DHT22;11254;50.098;8.726;2022-07-25T20:54:43;24.60;81.30
22177;DHT22;11254;50.098;8.726;2022-07-25T20:57:11;24.50;81.60
22177;DHT22;11254;50.098;8.726;2022-07-25T20:59:39;24.50;82.40
22177;DHT22;11254;50.098;8.726;2022-07-25T21:02:07;24.50;82.20
22177;DHT22;11254;50.098;8.726;2022-07-25T21:04:38;24.50;82.80
22177;DHT22;11254;50.098;8.726;2022-07-25T21:07:06;24.50;83.40
22177;DHT22;11254;50.098;8.726;2022-07-25T21:09:35;24.40;82.60
22177;DHT22;11254;50.098;8.726;2022-07-25T21:12:04;24.40;83.30
22177;DHT22;11254;50.098;8.726;2022-07-25T21:14:32;24.30;83.70
22177;DHT22;11254;50.098;8.726;2022-07-25T21:17:00;24.30;84.30
22177;DHT22;11254;50.098;8.726;2022-07-25T21:19:28;24.30;84.10
22177;DHT22;11254;50.098;8.726;2022-07-25T21:21:58;24.30;83.90
22177;DHT22;11254;50.098;8.726;2022-07-25T21:24:26;24.20;84.60
22177;DHT22;11254;50.098;8.726;2022-07-25T21:26:54;24.10;85.40
22177;DHT22;11254;50.098;8.726;2022-07-25T21:29:22;24.00;85.40
22177;DHT22;11254;50.098;8.726;2022-07-25T21:31:50;24.00;85.70
22177;DHT22;11254;50.098;8.726;2022-07-25T21:34:20;24.00;85.80
22177;DHT22;11254;50.098;8.726;2022-07-25T21:36:48;23.90;85.90
22177;DHT22;11254;50.098;8.726;2022-07-25T21:39:17;23.90;86.20
22177;DHT22;11254;50.098;8.726;2022-07-25T21:41:45;23.90;86.20
22177;DHT22;11254;50.098;8.726;2022-07-25T21:44:20;23.90;86.80
22177;DHT22;11254;50.098;8.726;2022-07-25T21:46:49;23.80;87.30
22177;DHT22;11254;50.098;8.726;2022-07-25T21:49:17;23.80;87.30
22177;DHT22;11254;50.098;8.726;2022-07-25T21:52:07;23.80;87.60
22177;DHT22;11254;50.098;8.726;2022-07-25T21:54:41;23.70;88.50
22177;DHT22;11254;50.098;8.726;2022-07-25T21:57:10;23.60;89.10
22177;DHT22;11254;50.098;8.726;2022-07-25T21:59:40;23.60;89.30
22177;DHT22;11254;50.098;8.726;2022-07-25T22:07:06;23.60;89.40
22177;DHT22;11254;50.098;8.726;2022-07-25T22:09:34;23.60;89.50
22177;DHT22;11254;50.098;8.726;2022-07-25T22:12:04;23.50;87.80
22177;DHT22;11254;50.098;8.726;2022-07-25T22:14:32;23.50;87.40
22177;DHT22;11254;50.098;8.726;2022-07-25T22:17:00;23.50;87.30
22177;DHT22;11254;50.098;8.726;2022-07-25T22:19:28;23.40;87.50
22177;DHT22;11254;50.098;8.726;2022-07-25T22:21:56;23.40;87.40
22177;DHT22;11254;50.098;8.726;2022-07-25T22:24:24;23.50;86.50
22177;DHT22;11254;50.098;8.726;2022-07-25T22:26:52;23.60;86.40